Weather observations for the past three days for
Bay Bridge Field
Metric (Imperial)
Date Time (edt) Wind (kph) Vis. (km) Weather Sky Cond. Temperature (ºC) Relative Humidity Wind Chill (°C) Heat Index (°C) Pressure Precipitation (cm)
Air Dwpt 6 hour altimeter (cm) sea level (mb) 1 hr 3 hr 6 hr
Max. Min.
05 02:55 NW 15 16.09 Fair CLR 25.5 22.2 82% 27 75.79 0.0
05 02:35 NW 17 16.09 Partly Cloudy SCT049 25.6 22.3 82% 27 75.82 0.0
05 02:15 W 13 16.09 Partly Cloudy SCT049 25.6 22.4 83% 27 75.82 0.0
05 01:55 W 13 16.09 Fair CLR 25.7 22.6 27.6 25.6 83% 27 75.82 0.0
05 01:35 W 15 16.09 Fair CLR 25.6 22.8 85% 27 75.82 0.0
05 01:10 W 15 16.09 Fair CLR 25.7 23.1 86% 27 75.84 0.0
05 00:55 W 13 16.09 Fair CLR 25.7 23.4 87% 27 75.87 0.0
05 00:35 W 9 16.09 Fair CLR 25.8 23.4 87% 27 75.87 0.0
05 00:15 W 13 16.09 Fair CLR 25.7 23.5 88% 27 75.87 0.0
04 23:55 W 19 16.09 Fair CLR 25.7 23.4 87% 27 75.9 0.0
04 23:35 W 11 16.09 Fair CLR 26 23.6 87% 28 75.9 0.0
04 23:15 SW 7 16.09 Fair CLR 26.1 23.8 87% 28 75.9 0.0
04 22:55 SW 7 16.09 Fair CLR 26.1 23.8 87% 28 75.9 0.0
04 22:35 SW 9 16.09 Fair CLR 26.3 23.8 86% 29 75.92 0.0
04 22:15 SW 13 16.09 Fair CLR 26.5 23.8 85% 29 75.9 0.0
04 21:55 SW 11 16.09 Fair CLR 26.8 23.8 84% 30 75.9 0.0
04 21:35 SW 7 16.09 Fair CLR 27.2 23.6 81% 30 75.9 0.0
04 21:15 SW 7 16.09 Fair CLR 27.3 23.6 80% 30 75.87 0.0
04 20:55 SW 7 16.09 Fair CLR 27.1 23.8 82% 30 75.84 0.0
04 20:35 Calm 16.09 Fair CLR 26.6 23.6 84% 29 75.87 0.0
04 20:15 S 6 16.09 Fair CLR 27.4 23.2 78% 30 75.84 0.0
04 19:55 Calm 16.09 Fair CLR 26 23 32.1 25.8 84% 28 75.87 0.0
04 19:35 Calm 16.09 Fair CLR 26.8 22.9 79% 29 75.84 0.0
04 19:15 S 7 16.09 Fair CLR 28.2 22.4 71% 31 75.84 0.0
04 18:55 S 6 16.09 Fair CLR 28.6 22.5 70% 32 75.84 0.0
04 18:35 SE 7 16.09 Fair CLR 28.7 22.5 69% 32 75.84 0.0
04 18:15 S 6 16.09 Fair CLR 28.8 22.4 68% 32 75.9 0.0
04 17:55 S 9 16.09 Fair CLR 29.2 22.6 68% 33 75.92 0.0
04 17:35 S 9 16.09 Fair CLR 29.5 22.3 65% 33 75.9 0.0
04 17:15 S 7 16.09 Fair CLR 29.9 22.7 65% 34 75.92 0.0
04 16:55 S 7 16.09 Partly Cloudy SCT055 30.5 22.4 62% 34 75.92 0.0
04 16:35 Calm 16.09 Mostly Cloudy BKN055 30.3 21.2 58% 33 75.95 0.0
04 16:15 SE 11 16.09 Fair CLR 31.8 21.2 53% 35 75.9 0.0
04 15:55 NE 7 16.09 Fair CLR 30.7 21.3 57% 34 75.95 0.0
04 15:35 Calm 16.09 Fair CLR 31 20.5 54% 33 75.92 0.0
04 15:15 N 9 16.09 Fair CLR 30.9 20.9 55% 34 75.95 0.0
04 14:55 N 9 16.09 Fair CLR 30.8 21.5 58% 34 75.97 0.0
04 14:35 N 7 16.09 Fair CLR 30.6 21.4 58% 34 75.97 0.0
04 14:15 N 6 16.09 Fair CLR 30.3 21.2 58% 33 76 0.0
04 13:55 NW 6 16.09 Fair CLR 29.9 20.8 30.3 24.1 58% 32 76 0.0
04 13:35 NW 7 16.09 Fair CLR 30 21.7 61% 33 76 0.0
04 13:15 Calm 16.09 Fair CLR 29.1 21.3 63% 32 76.02 0.0
04 12:55 Calm 16.09 Fair CLR 28.8 21.3 64% 31 76.02 0.0
04 12:35 N 7 16.09 Fair CLR 28.3 21.1 65% 31 76.05 0.0
04 12:15 NW 6 16.09 Fair CLR 28.4 21.3 65% 31 76.05 0.0
04 11:55 NW 7 16.09 Fair CLR 28.4 21.5 66% 31 76.07 0.0
04 11:35 NW 11 16.09 Fair CLR 28.2 21.1 65% 30 76.07 0.0
04 11:15 N 9 16.09 Fair CLR 27.9 21.1 67% 30 76.07 0.0
04 10:55 N 11 16.09 Fair CLR 27.6 21.1 68% 30 76.1 0.0
04 10:35 NW 9 16.09 Fair CLR 27.9 21.3 67% 30 76.1 0.0
04 10:15 NW 13 16.09 Fair CLR 27 21.6 72% 29 76.07 0.0
04 09:55 NW 15 16.09 Fair CLR 26.8 21.6 73% 29 76.1 0.0
04 09:35 NW 11 16.09 Fair CLR 26.4 21.3 74% 28 76.07 0.0
04 09:15 W 9 16.09 Fair CLR 25.7 21.8 79% 27 76.05 0.0
04 08:55 W 11 16.09 Fair CLR 25.4 21.8 81% 27 76.07 0.0
04 08:35 W 11 16.09 Fair CLR 25 21.7 82% 26 76.07 0.0
04 08:15 W 13 16.09 Fair CLR 24.5 21.6 84% 25 76.07 0.0
04 07:55 W 17 16.09 Fair CLR 24.1 21.7 24.1 22.4 87% 24 76.07 0.0
04 07:35 W 17 16.09 Partly Cloudy SCT075 23.7 21.8 89% 76.07 0.0
04 07:15 W 15 16.09 Mostly Cloudy BKN075 BKN095 23.5 21.6 89% 76.05 0.0
04 06:55 W 7 16.09 Mostly Cloudy SCT075 BKN085 23.3 21.5 90% 76.05 0.0
04 06:35 W 9 16.09 Partly Cloudy SCT075 SCT090 23.4 21.2 88% 76.02 0.0
04 06:15 NW 13 16.09 Overcast BKN075 OVC090 23.8 21.6 88% 76.05 0.0
04 05:55 W 13 16.09 Partly Cloudy SCT075 SCT080 23.9 22.2 90% 23 76.02 0.0
04 05:35 Calm 16.09 Partly Cloudy SCT075 23 22.6 98% 76 0.0
04 05:15 Calm 16.09 Fair CLR 23 22.3 96% 76 0.0
04 04:55 SW 6 16.09 Fair CLR 23.3 22.4 95% 76 0.0
04 04:35 SW 9 16.09 Partly Cloudy SCT100 SCT120 23.4 22.5 95% 76 0.0
04 04:15 SW 9 16.09 Partly Cloudy SCT100 SCT120 23.5 22.5 94% 76 0.0
04 03:55 SW 9 16.09 Fair CLR 23.6 22.5 94% 76.02 0.0
04 03:35 SW 7 16.09 Fair CLR 23.7 22.9 95% 76.02 0.0
04 03:15 S 6 16.09 Fair CLR 23.6 22.8 95% 76.05 0.0
04 02:55 S 6 16.09 Thunderstorm in Vicinity BKN013 23.4 22.9 97% 76.05 0.0
04 02:35 SW 9 16.09 Mostly Cloudy BKN015 23.3 22.6 96% 76.05 0.0
04 02:15 SW 7 16.09 Fair CLR 23.3 22 92% 76 0.0
04 01:55 S 9 16.09 Partly Cloudy SCT110 23.1 22.5 28.9 23.1 96% 75.97 0.0 0.05 0.46
04 01:35 S 7 16.09 Light Rain SCT110 23.2 22.5 96% 75.95 0.0 0.05
04 01:15 S 15 11.27 Thunderstorm Rain SCT030 SCT060 SCT120 23.3 22.5 95% 76 0.0 0.03
04 00:55 W 15 G 33 4.83 Thunderstorm Heavy Rain Fog/Mist SCT016 BKN029 OVC060 23.3 22.1 93% 76.12 0.0 0.38
04 00:35 W 28 G 54 16.09 Thunderstorm in Vicinity SCT019 SCT032 BKN065 28 25.3 85% 33 76.1 0.0
04 00:15 W 11 16.09 Mostly Cloudy SCT065 SCT095 BKN120 27.9 25.8 88% 33 76.02 0.0
03 23:55 NW 7 16.09 Partly Cloudy SCT065 27.7 25.1 86% 32 75.97 0.0
03 23:35 SW 7 16.09 Fair CLR 28.2 25 83% 33 75.97 0.0
03 23:15 SW 11 16.09 Fair CLR 28.3 24.9 82% 33 76 0.0
03 22:55 SW 7 16.09 Fair CLR 28.6 24.7 79% 34 76.02 0.0
03 22:35 SW 11 16.09 Fair CLR 28.7 24.8 79% 34 76.02 0.0
03 22:15 SW 9 16.09 Fair CLR 28.8 24.8 79% 34 76.02 0.0
03 21:55 S 9 16.09 Fair CLR 28.7 24.8 79% 34 76.02 0.0
03 21:35 S 9 16.09 Fair CLR 28.5 24.9 81% 34 76 0.0
03 21:15 SW 9 16.09 Fair CLR 28.8 24.8 79% 34 76.02 0.0
03 20:55 SW 11 16.09 Fair CLR 28.7 25.1 81% 34 76.07 0.0
03 20:35 SW 9 16.09 Fair CLR 28.6 25.1 81% 34 76.07 0.0
03 20:15 SW 7 16.09 Fair CLR 28.4 25.3 83% 34 76.07 0.0
03 19:55 S 7 16.09 Fair CLR 28.4 25.5 32.7 28.4 84% 34 76.05 0.0
03 19:35 S 9 16.09 Fair CLR 28.8 25.2 81% 34 76 0.0
03 19:15 S 9 16.09 Fair CLR 29.3 24.9 77% 35 76.02 0.0
03 18:55 S 13 16.09 Fair CLR 30 24.3 72% 35 76 0.0
03 18:35 S 11 16.09 Fair CLR 30.7 24.7 70% 37 76 0.0
03 18:15 S 9 16.09 Fair CLR 31.1 24.6 68% 37 76 0.0
03 17:55 S 11 16.09 Fair CLR 31.4 24.7 68% 38 76 0.0
03 17:35 S 15 16.09 Fair CLR 31.8 23.9 63% 38 76 0.0
03 17:15 S 15 16.09 Fair CLR 32.2 23.5 60% 38 76 0.0
03 16:55 S 11 16.09 Fair CLR 32.4 23.2 58% 37 76.02 0.0
03 16:35 S 7 16.09 Fair CLR 32.2 24.6 64% 39 76.02 0.0
03 16:15 S 9 16.09 Fair CLR 32.1 24 62% 38 76.05 0.0
03 15:55 S 11 16.09 Fair CLR 31.8 23.3 61% 37 76.07 0.0
03 15:35 SW 9 16.09 Fair CLR 30.8 22.7 62% 35 76.1 0.0
03 15:15 SW 9 16.09 Fair CLR 30.8 23.2 64% 35 76.12 0.0
03 14:55 SW 9 16.09 Fair CLR 30.7 23.7 66% 36 76.12 0.0
03 14:35 SW 11 16.09 Fair CLR 29.7 23.9 71% 35 76.12 0.0
03 14:15 SW 19 16.09 Fair CLR 29.2 24.2 74% 34 76.15 0.0
03 13:55 SW 17 16.09 Fair CLR 29.7 24.4 29.9 24.1 73% 35 76.17 0.0
03 13:35 SW 15 16.09 Fair CLR 28.8 24.5 78% 34 76.17 0.0
03 13:15 SW 15 16.09 Fair CLR 27.5 24.2 82% 31 76.17 0.0
03 12:55 S 9 16.09 Fair CLR 27.5 24 81% 31 76.17 0.0
03 12:35 SW 13 16.09 Partly Cloudy SCT015 SCT027 27.5 24 81% 31 76.23 0.0
03 12:15 W 17 16.09 Overcast BKN013 OVC017 26.5 24.1 87% 29 76.35 0.0
03 11:55 SW 17 16.09 Overcast OVC011 27 24.3 85% 30 76.33 0.0
03 11:35 SW 20 16.09 Mostly Cloudy BKN011 BKN015 27.2 24.2 84% 31 76.28 0.0
03 11:15 SW 17 16.09 Mostly Cloudy BKN011 27.6 24.1 81% 31 76.28 0.0
03 10:55 SW 13 16.09 Partly Cloudy SCT013 27.6 23.6 79% 31 76.25 0.0
03 10:35 SW 13 16.09 Partly Cloudy SCT013 28.3 23.5 75% 32 76.25 0.0
03 10:15 SW 15 16.09 Partly Cloudy SCT009 27.2 23.6 81% 30 76.25 0.0
03 09:55 S 19 16.09 Partly Cloudy SCT007 26.3 23.6 85% 29 76.2 0.0
03 09:35 S 15 16.09 Partly Cloudy SCT007 26.3 23.7 86% 29 76.25 0.0
03 09:15 S 13 16.09 Partly Cloudy SCT007 SCT020 25.6 23.5 88% 27 76.3 0.0
03 08:55 S 9 16.09 Mostly Cloudy BKN020 25.1 23.3 90% 26 76.33 0.0
03 08:35 SE 11 16.09 Overcast SCT008 OVC020 24.8 23.3 91% 25 76.35 0.0
03 08:15 E 6 16.09 Overcast SCT008 OVC022 24.3 23.3 94% 24 76.38 0.0
03 07:55 Calm 16.09 Overcast BKN008 OVC022 24.1 23 24.3 23.4 94% 23 76.4 0.0
03 07:35 SE 9 16.09 Overcast BKN008 OVC020 24.1 23 94% 23 76.35 0.0
03 07:15 E 9 11.27 Thunderstorm in Vicinity SCT008 OVC020 23.8 23.1 96% 76.35 0.0
03 06:55 NE 7 11.27 Overcast SCT006 OVC018 23.7 23.1 96% 76.35 0.0
03 06:35 N 9 11.27 Overcast BKN004 OVC018 23.5 23.1 98% 76.33 0.0
03 06:15 SE 11 11.27 Mostly Cloudy BKN004 23.5 23 97% 76.23 0.0
03 05:55 SE 11 11.27 Mostly Cloudy BKN004 BKN023 BKN070 23.5 23 97% 76.25 0.0
03 05:35 E 7 16.09 Overcast SCT006 BKN025 OVC070 23.6 22.9 96% 76.28 0.0
03 05:15 E 6 16.09 Overcast SCT006 OVC025 23.8 23 95% 76.28 0.0
03 04:55 E 7 16.09 Overcast SCT006 OVC025 23.8 23.1 96% 76.28 0.0
03 04:35 E 7 16.09 Overcast BKN025 OVC060 24 23.2 95% 23 76.28 0.0
03 04:15 SE 6 16.09 Overcast SCT009 SCT017 OVC027 24.2 23.3 95% 24 76.28 0.0
03 03:55 E 7 8.05 Fog/Mist BKN009 BKN018 OVC027 24 23.2 95% 23 76.3 0.0
03 03:35 NE 6 16.09 Overcast SCT009 BKN025 OVC070 24.1 23.2 95% 23 76.3 0.0
03 03:15 S 6 16.09 Overcast SCT011 BKN070 OVC090 24.1 23.2 95% 23 76.28 0.0
03 02:55 S 11 16.09 Overcast BKN007 BKN011 OVC070 24.1 23.1 94% 23 76.25 0.0
03 02:35 S 7 16.09 Overcast BKN007 OVC070 24.1 23.2 95% 23 76.25 0.0
03 02:15 S 13 16.09 Overcast BKN009 OVC070 24 23.1 95% 23 76.25 0.0
03 01:55 S 11 16.09 Overcast OVC009 23.8 23.1 23.8 22.1 96% 76.25 0.0
03 01:35 SE 9 11.27 Mostly Cloudy BKN007 BKN075 BKN100 23.6 23 96% 76.28 0.0
03 01:15 E 7 11.27 Partly Cloudy SCT007 23.3 22.7 96% 76.3 0.0
03 00:55 E 7 16.09 Partly Cloudy SCT007 SCT011 23.4 22.8 96% 76.28 0.0
03 00:35 SE 9 16.09 Partly Cloudy SCT009 SCT085 23.5 22.7 95% 76.3 0.0
03 00:15 E 7 16.09 Thunderstorm in Vicinity SCT009 OVC075 23.2 22.6 96% 76.33 0.0
02 23:55 E 7 16.09 Thunderstorm in Vicinity SCT075 BKN085 BKN110 23.3 22.6 96% 76.33 0.0
02 23:35 SE 6 16.09 Partly Cloudy SCT075 SCT100 23.4 22.5 95% 76.33 0.0
02 23:15 SE 11 16.09 Mostly Cloudy SCT070 BKN085 BKN120 23.5 22.5 94% 76.33 0.0
02 22:55 E 7 16.09 Overcast BKN095 OVC120 23.4 22.4 94% 76.33 0.0
02 22:35 E 7 16.09 Mostly Cloudy BKN095 23.5 22.4 94% 76.35 0.0
02 22:15 SE 6 16.09 Fair CLR 22.2 21.8 98% 76.33 0.0
02 21:55 Calm 16.09 Fair CLR 22.3 21.7 96% 76.33 0.0
02 21:35 Calm 16.09 Fair CLR 22.5 21.9 96% 76.33 0.0
02 21:15 Calm 16.09 Partly Cloudy SCT011 22.9 22.1 95% 76.33 0.0
02 20:55 Calm 16.09 Partly Cloudy SCT011 22.6 21.6 94% 76.33 0.0
02 20:35 Calm 16.09 Fair CLR 22.3 21.5 95% 76.3 0.0
02 20:15 Calm 16.09 Partly Cloudy SCT017 22.7 21.6 94% 76.33 0.0
02 19:55 E 6 16.09 Partly Cloudy SCT017 22.6 21.8 25.1 22.1 95% 76.3 0.0 0.08
02 19:35 Calm 16.09 Fair CLR 23.1 21.6 91% 76.33 0.0
02 19:15 Calm 16.09 Fair CLR 23.7 21.9 90% 76.33 0.0
02 18:55 Calm 16.09 Fair CLR 24.7 21.9 84% 25 76.33 0.0
02 18:35 Calm 16.09 Fair CLR 24.8 21.5 82% 25 76.3 0.0
02 18:15 S 6 16.09 Fair CLR 25.1 21.8 82% 26 76.3 0.0
02 17:55 Calm 16.09 Partly Cloudy SCT017 24.4 21.7 85% 25 76.35 0.0
02 17:35 Calm 16.09 Overcast OVC017 24 21.6 87% 24 76.38 0.0
02 17:15 Calm 16.09 Partly Cloudy SCT017 24 21.5 86% 24 76.35 0.0
02 16:55 Calm 16.09 Fair CLR 23.8 21.8 89% 76.35 0.0 0.08
02 16:35 S 7 16.09 Fair CLR 24.1 22.3 90% 24 76.33 0.0
02 16:15 SW 9 16.09 Partly Cloudy SCT017 24 22.3 90% 24 76.35 0.0
02 15:55 SW 9 16.09 Mostly Cloudy BKN017 23.9 22.4 91% 23 76.35 0.0 0.03
02 15:35 SW 7 16.09 Mostly Cloudy SCT012 BKN019 23.4 22.4 94% 76.33 0.0 0.03
02 15:15 SW 7 16.09 Light Rain BKN014 BKN036 OVC070 22.9 22.1 95% 76.35 0.0 0.03
02 14:55 SW 11 16.09 Light Rain SCT029 SCT050 BKN070 23.2 22.5 96% 76.35 0.0 0.05
02 14:35 Calm 16.09 Rain SCT120 22.2 21.4 95% 76.4 0.0 0.05
02 14:15 N 9 16.09 Light Rain SCT050 SCT070 BKN100 22.3 21.1 93% 76.45 0.0 0.03
02 13:55 N 11 G 28 8.05 Heavy Rain Fog/Mist SCT023 BKN060 OVC070 22.5 21.2 29.2 22.3 92% 76.53 0.0 0.03 0.03
02 13:35 N 30 G 61 16.09 Thunderstorm in Vicinity BKN023 BKN038 OVC049 25.7 20.9 75% 27 76.61 0.0
02 13:15 Calm 16.09 Overcast OVC023 28.7 22.9 71% 32 76.45 0.0
02 12:55 NE 6 16.09 Overcast OVC021 29 23.1 71% 33 76.43 0.0
02 12:35 E 6 16.09 Overcast OVC021 28.6 22.9 71% 32 76.43 0.0
02 12:15 E 9 16.09 Mostly Cloudy BKN019 28.5 23 72% 32 76.4 0.0
02 11:55 E 6 16.09 Partly Cloudy SCT019 28.8 22.6 69% 32 76.4 0.0
02 11:35 E 7 16.09 Partly Cloudy SCT016 28.2 22.7 72% 31 76.4 0.0
02 11:15 E 9 16.09 Partly Cloudy SCT016 27.8 22.5 73% 31 76.43 0.0
02 10:55 E 9 16.09 Partly Cloudy SCT014 27.4 22.4 74% 30 76.43 0.0
02 10:35 NE 7 16.09 Partly Cloudy SCT012 26.8 22.6 78% 29 76.43 0.0
02 10:15 E 17 16.09 Partly Cloudy SCT008 26.2 22.1 78% 28 76.4 0.0
02 09:55 E 15 16.09 Overcast OVC008 24.7 22.1 86% 25 76.4 0.0
02 09:35 E 17 16.09 Mostly Cloudy BKN010 24.6 22 86% 25 76.43 0.0
02 09:15 E 7 16.09 Partly Cloudy SCT010 25.2 22.1 83% 26 76.4 0.0
02 08:55 NE 11 16.09 Fair CLR 25.8 22.3 81% 27 76.4 0.0
02 08:35 E 13 16.09 Fair CLR 25.1 22.3 85% 26 76.38 0.0
02 08:15 E 7 16.09 Mostly Cloudy BKN007 24.4 22.3 88% 24 76.35 0.0
02 07:55 E 15 16.09 Overcast OVC007 24.1 22.5 24.7 22.4 91% 24 76.35 0.0
02 07:35 E 9 16.09 Partly Cloudy SCT007 24.5 22.7 90% 25 76.35 0.0
02 07:15 NE 7 16.09 Fair CLR 24.6 22.4 88% 25 76.35 0.0
02 06:55 NE 7 16.09 Fair CLR 24.3 22.3 89% 24 76.35 0.0
02 06:35 NE 6 16.09 Fair CLR 23.7 22 90% 76.33 0.0
02 06:15 Calm 16.09 Fair CLR 23.1 21.5 91% 76.3 0.0
02 05:55 Calm 16.09 Fair CLR 23.7 21.6 88% 76.3 0.0
02 05:35 Calm 16.09 Fair CLR 23.5 21.6 89% 76.33 0.0
02 05:15 Calm 16.09 Fair CLR 23.3 21.4 89% 76.3 0.0
02 04:55 Calm 16.09 Fair CLR 23.5 21.5 89% 76.3 0.0
02 04:35 Calm 16.09 Fair CLR 22.6 21.4 93% 76.3 0.0
02 04:15 Calm 16.09 Fair CLR 23.3 21.4 89% 76.3 0.0
02 03:55 N 7 16.09 Fair CLR 23.4 21.4 89% 76.3 0.0
02 03:35 Calm 16.09 Fair CLR 23.3 21.3 89% 76.28 0.0
02 03:15 E 6 16.09 Fair CLR 24.2 21.3 84% 24 76.28 0.0
Date Time (edt) Wind (kph) Vis. (km) Weather Sky Cond. Air Dwpt Max. Min. Relative Humidity Wind Chill (°C) Heat Index (°C) altimeter (cm) sea level (mb) 1 hr 3 hr 6 hr
6 hour
Temperature (ºC) Pressure Precipitation (cm)